sensor_id;sensor_type;location;lat;lon;timestamp;temperature;humidity
18105;DHT22;9179;50.968;3.134;2024-03-02T00:02:23;8.00;99.90
18105;DHT22;9179;50.968;3.134;2024-03-02T00:04:52;7.80;99.90
18105;DHT22;9179;50.968;3.134;2024-03-02T00:07:19;7.70;99.90
18105;DHT22;9179;50.968;3.134;2024-03-02T00:09:46;7.60;99.90
18105;DHT22;9179;50.968;3.134;2024-03-02T00:12:15;7.60;99.90
18105;DHT22;9179;50.968;3.134;2024-03-02T00:14:42;7.70;99.90
18105;DHT22;9179;50.968;3.134;2024-03-02T00:17:17;7.80;99.90
18105;DHT22;9179;50.968;3.134;2024-03-02T00:19:47;7.90;99.90
18105;DHT22;9179;50.968;3.134;2024-03-02T00:22:16;7.90;99.90
18105;DHT22;9179;50.968;3.134;2024-03-02T00:24:43;7.80;99.90
18105;DHT22;9179;50.968;3.134;2024-03-02T00:27:13;7.70;99.90
18105;DHT22;9179;50.968;3.134;2024-03-02T00:29:41;7.60;99.90
18105;DHT22;9179;50.968;3.134;2024-03-02T00:32:13;7.60;99.90
18105;DHT22;9179;50.968;3.134;2024-03-02T00:34:40;7.50;99.90
18105;DHT22;9179;50.968;3.134;2024-03-02T00:37:07;7.40;99.90
18105;DHT22;9179;50.968;3.134;2024-03-02T00:39:36;7.20;99.90
18105;DHT22;9179;50.968;3.134;2024-03-02T00:42:03;7.10;99.90
18105;DHT22;9179;50.968;3.134;2024-03-02T00:44:30;7.00;99.90
18105;DHT22;9179;50.968;3.134;2024-03-02T00:47:01;7.00;99.90
18105;DHT22;9179;50.968;3.134;2024-03-02T00:49:29;7.00;99.90
18105;DHT22;9179;50.968;3.134;2024-03-02T00:51:56;7.00;99.90
18105;DHT22;9179;50.968;3.134;2024-03-02T00:54:25;7.00;99.90
18105;DHT22;9179;50.968;3.134;2024-03-02T00:56:55;6.90;99.90
18105;DHT22;9179;50.968;3.134;2024-03-02T00:59:22;6.90;99.90
18105;DHT22;9179;50.968;3.134;2024-03-02T01:01:49;6.90;99.90
18105;DHT22;9179;50.968;3.134;2024-03-02T01:04:16;6.90;99.90
18105;DHT22;9179;50.968;3.134;2024-03-02T01:06:43;6.90;99.90
18105;DHT22;9179;50.968;3.134;2024-03-02T01:09:11;6.80;99.90
18105;DHT22;9179;50.968;3.134;2024-03-02T01:11:39;6.80;99.90
18105;DHT22;9179;50.968;3.134;2024-03-02T01:14:07;6.80;99.90
18105;DHT22;9179;50.968;3.134;2024-03-02T01:16:34;6.70;99.90
18105;DHT22;9179;50.968;3.134;2024-03-02T01:19:01;6.70;99.90
18105;DHT22;9179;50.968;3.134;2024-03-02T01:21:29;6.70;99.90
18105;DHT22;9179;50.968;3.134;2024-03-02T01:23:56;6.70;99.90
18105;DHT22;9179;50.968;3.134;2024-03-02T01:26:23;6.70;99.90
18105;DHT22;9179;50.968;3.134;2024-03-02T01:28:50;6.60;99.90
18105;DHT22;9179;50.968;3.134;2024-03-02T01:31:18;6.60;99.90
18105;DHT22;9179;50.968;3.134;2024-03-02T01:33:45;6.60;99.90
18105;DHT22;9179;50.968;3.134;2024-03-02T01:36:12;6.60;99.90
18105;DHT22;9179;50.968;3.134;2024-03-02T01:38:39;6.60;99.90
18105;DHT22;9179;50.968;3.134;2024-03-02T01:41:07;6.60;99.90
18105;DHT22;9179;50.968;3.134;2024-03-02T01:43:34;6.60;99.90
18105;DHT22;9179;50.968;3.134;2024-03-02T01:46:01;6.60;99.90
18105;DHT22;9179;50.968;3.134;2024-03-02T01:48:29;6.50;99.90
18105;DHT22;9179;50.968;3.134;2024-03-02T01:50:56;6.60;99.90
18105;DHT22;9179;50.968;3.134;2024-03-02T01:53:23;6.60;99.90
18105;DHT22;9179;50.968;3.134;2024-03-02T01:55:50;6.50;99.90
18105;DHT22;9179;50.968;3.134;2024-03-02T01:58:17;6.50;99.90
18105;DHT22;9179;50.968;3.134;2024-03-02T02:00:44;6.50;99.90
18105;DHT22;9179;50.968;3.134;2024-03-02T02:03:11;6.50;99.90
18105;DHT22;9179;50.968;3.134;2024-03-02T02:05:42;6.50;99.90
18105;DHT22;9179;50.968;3.134;2024-03-02T02:08:09;6.50;99.90
18105;DHT22;9179;50.968;3.134;2024-03-02T02:10:36;6.50;99.90
18105;DHT22;9179;50.968;3.134;2024-03-02T02:13:03;6.50;99.90
18105;DHT22;9179;50.968;3.134;2024-03-02T02:15:31;6.50;99.90
18105;DHT22;9179;50.968;3.134;2024-03-02T02:18:00;6.60;99.90
18105;DHT22;9179;50.968;3.134;2024-03-02T02:20:27;6.60;99.90
18105;DHT22;9179;50.968;3.134;2024-03-02T02:22:57;6.60;99.90
18105;DHT22;9179;50.968;3.134;2024-03-02T02:25:24;6.50;99.90
18105;DHT22;9179;50.968;3.134;2024-03-02T02:27:51;6.50;99.90
18105;DHT22;9179;50.968;3.134;2024-03-02T02:30:19;6.50;99.90
18105;DHT22;9179;50.968;3.134;2024-03-02T02:32:47;6.50;99.90
18105;DHT22;9179;50.968;3.134;2024-03-02T02:35:14;6.50;99.90
18105;DHT22;9179;50.968;3.134;2024-03-02T02:37:41;6.40;99.90
18105;DHT22;9179;50.968;3.134;2024-03-02T02:40:11;6.40;99.90
18105;DHT22;9179;50.968;3.134;2024-03-02T02:42:38;6.40;99.90
18105;DHT22;9179;50.968;3.134;2024-03-02T02:45:05;6.40;99.90
18105;DHT22;9179;50.968;3.134;2024-03-02T02:47:32;6.40;99.90
18105;DHT22;9179;50.968;3.134;2024-03-02T02:50:01;6.40;99.90
18105;DHT22;9179;50.968;3.134;2024-03-02T02:52:31;6.40;99.90
18105;DHT22;9179;50.968;3.134;2024-03-02T02:55:01;6.40;99.90
18105;DHT22;9179;50.968;3.134;2024-03-02T02:57:30;6.30;99.90
18105;DHT22;9179;50.968;3.134;2024-03-02T03:00:01;6.30;99.90
18105;DHT22;9179;50.968;3.134;2024-03-02T03:02:29;6.30;99.90
18105;DHT22;9179;50.968;3.134;2024-03-02T03:04:56;6.30;99.90
18105;DHT22;9179;50.968;3.134;2024-03-02T03:07:23;6.30;99.90
18105;DHT22;9179;50.968;3.134;2024-03-02T03:09:50;6.30;99.90
18105;DHT22;9179;50.968;3.134;2024-03-02T03:12:17;6.20;99.90
18105;DHT22;9179;50.968;3.134;2024-03-02T03:14:45;6.20;99.90
18105;DHT22;9179;50.968;3.134;2024-03-02T03:17:13;6.20;99.90
18105;DHT22;9179;50.968;3.134;2024-03-02T03:19:39;6.20;99.90
18105;DHT22;9179;50.968;3.134;2024-03-02T03:22:06;6.20;99.90
18105;DHT22;9179;50.968;3.134;2024-03-02T03:24:33;6.20;99.90
18105;DHT22;9179;50.968;3.134;2024-03-02T03:27:00;6.20;99.90
18105;DHT22;9179;50.968;3.134;2024-03-02T03:29:27;6.30;99.90
18105;DHT22;9179;50.968;3.134;2024-03-02T03:31:56;6.30;99.90
18105;DHT22;9179;50.968;3.134;2024-03-02T03:34:23;6.40;99.90
18105;DHT22;9179;50.968;3.134;2024-03-02T03:36:50;6.50;99.90
18105;DHT22;9179;50.968;3.134;2024-03-02T03:39:17;6.50;99.90
18105;DHT22;9179;50.968;3.134;2024-03-02T03:41:44;6.50;99.90
18105;DHT22;9179;50.968;3.134;2024-03-02T03:44:11;6.50;99.90
18105;DHT22;9179;50.968;3.134;2024-03-02T03:46:38;6.50;99.90
18105;DHT22;9179;50.968;3.134;2024-03-02T03:49:06;6.40;99.90
18105;DHT22;9179;50.968;3.134;2024-03-02T03:51:33;6.40;99.90
18105;DHT22;9179;50.968;3.134;2024-03-02T03:54:01;6.40;99.90
18105;DHT22;9179;50.968;3.134;2024-03-02T03:56:27;6.40;99.90
18105;DHT22;9179;50.968;3.134;2024-03-02T03:58:54;6.40;99.90
18105;DHT22;9179;50.968;3.134;2024-03-02T04:01:21;6.40;99.90
18105;DHT22;9179;50.968;3.134;2024-03-02T04:03:48;6.30;99.90
18105;DHT22;9179;50.968;3.134;2024-03-02T04:06:17;6.30;99.90
18105;DHT22;9179;50.968;3.134;2024-03-02T04:08:43;6.30;99.90
18105;DHT22;9179;50.968;3.134;2024-03-02T04:11:10;6.20;99.90
18105;DHT22;9179;50.968;3.134;2024-03-02T04:13:37;6.20;99.90
18105;DHT22;9179;50.968;3.134;2024-03-02T04:16:05;6.10;99.90
18105;DHT22;9179;50.968;3.134;2024-03-02T04:18:32;6.20;99.90
18105;DHT22;9179;50.968;3.134;2024-03-02T04:20:59;6.10;99.90
18105;DHT22;9179;50.968;3.134;2024-03-02T04:23:27;6.10;99.90
18105;DHT22;9179;50.968;3.134;2024-03-02T04:25:54;6.10;99.90
18105;DHT22;9179;50.968;3.134;2024-03-02T04:28:21;6.20;99.90
18105;DHT22;9179;50.968;3.134;2024-03-02T04:30:48;6.20;99.90
18105;DHT22;9179;50.968;3.134;2024-03-02T04:33:15;6.20;99.90
18105;DHT22;9179;50.968;3.134;2024-03-02T04:35:42;6.20;99.90
18105;DHT22;9179;50.968;3.134;2024-03-02T04:38:09;6.20;99.90
18105;DHT22;9179;50.968;3.134;2024-03-02T04:40:37;6.10;99.90
18105;DHT22;9179;50.968;3.134;2024-03-02T04:43:04;6.10;99.90
18105;DHT22;9179;50.968;3.134;2024-03-02T04:45:31;6.10;99.90
18105;DHT22;9179;50.968;3.134;2024-03-02T04:47:58;6.10;99.90
18105;DHT22;9179;50.968;3.134;2024-03-02T04:50:25;6.10;99.90
18105;DHT22;9179;50.968;3.134;2024-03-02T04:52:52;6.00;99.90
18105;DHT22;9179;50.968;3.134;2024-03-02T04:55:19;6.00;99.90
18105;DHT22;9179;50.968;3.134;2024-03-02T04:58:17;6.00;99.90
18105;DHT22;9179;50.968;3.134;2024-03-02T05:00:44;6.00;99.90
18105;DHT22;9179;50.968;3.134;2024-03-02T05:03:12;6.00;99.90
18105;DHT22;9179;50.968;3.134;2024-03-02T05:05:40;6.00;99.90
18105;DHT22;9179;50.968;3.134;2024-03-02T05:08:07;6.00;99.90
18105;DHT22;9179;50.968;3.134;2024-03-02T05:10:33;6.00;99.90
18105;DHT22;9179;50.968;3.134;2024-03-02T05:13:02;5.90;99.90
18105;DHT22;9179;50.968;3.134;2024-03-02T05:15:30;5.90;99.90
